sensor_id;sensor_type;location;lat;lon;timestamp;temperature;humidity
19755;DHT22;10036;47.812;9.274;2022-11-25T00:01:59;2.30;99.90
19755;DHT22;10036;47.812;9.274;2022-11-25T00:04:26;2.30;99.90
19755;DHT22;10036;47.812;9.274;2022-11-25T00:06:58;2.40;99.90
19755;DHT22;10036;47.812;9.274;2022-11-25T00:09:25;2.60;99.90
19755;DHT22;10036;47.812;9.274;2022-11-25T00:11:52;2.50;99.90
19755;DHT22;10036;47.812;9.274;2022-11-25T00:14:20;2.40;99.90
19755;DHT22;10036;47.812;9.274;2022-11-25T00:16:47;2.30;99.90
19755;DHT22;10036;47.812;9.274;2022-11-25T00:19:14;2.30;99.90
19755;DHT22;10036;47.812;9.274;2022-11-25T00:21:41;2.30;99.90
19755;DHT22;10036;47.812;9.274;2022-11-25T00:24:08;2.30;99.90
19755;DHT22;10036;47.812;9.274;2022-11-25T00:26:37;2.30;99.90
19755;DHT22;10036;47.812;9.274;2022-11-25T00:29:05;2.30;99.90
19755;DHT22;10036;47.812;9.274;2022-11-25T00:31:35;2.20;99.90
19755;DHT22;10036;47.812;9.274;2022-11-25T00:34:03;2.10;99.90
19755;DHT22;10036;47.812;9.274;2022-11-25T00:36:31;2.10;99.90
19755;DHT22;10036;47.812;9.274;2022-11-25T00:39:00;2.00;99.90
19755;DHT22;10036;47.812;9.274;2022-11-25T00:41:28;2.10;99.90
19755;DHT22;10036;47.812;9.274;2022-11-25T00:44:27;2.10;99.90
19755;DHT22;10036;47.812;9.274;2022-11-25T00:47:07;2.30;99.90
19755;DHT22;10036;47.812;9.274;2022-11-25T00:49:35;2.50;99.90
19755;DHT22;10036;47.812;9.274;2022-11-25T00:52:04;2.60;99.90
19755;DHT22;10036;47.812;9.274;2022-11-25T00:54:31;2.70;99.90
19755;DHT22;10036;47.812;9.274;2022-11-25T00:56:58;2.80;99.90
19755;DHT22;10036;47.812;9.274;2022-11-25T00:59:25;2.60;99.90
19755;DHT22;10036;47.812;9.274;2022-11-25T01:01:53;2.50;99.90
19755;DHT22;10036;47.812;9.274;2022-11-25T01:04:21;2.50;99.90
19755;DHT22;10036;47.812;9.274;2022-11-25T01:06:48;2.60;99.90
19755;DHT22;10036;47.812;9.274;2022-11-25T01:09:15;2.80;99.90
19755;DHT22;10036;47.812;9.274;2022-11-25T01:11:42;2.80;99.90
19755;DHT22;10036;47.812;9.274;2022-11-25T01:14:10;2.80;99.90
19755;DHT22;10036;47.812;9.274;2022-11-25T01:16:37;3.00;99.90
19755;DHT22;10036;47.812;9.274;2022-11-25T01:19:04;2.80;99.90
19755;DHT22;10036;47.812;9.274;2022-11-25T01:21:33;2.90;99.90
19755;DHT22;10036;47.812;9.274;2022-11-25T01:24:02;2.90;99.90
19755;DHT22;10036;47.812;9.274;2022-11-25T01:26:29;2.90;99.90
19755;DHT22;10036;47.812;9.274;2022-11-25T01:28:58;2.90;99.90
19755;DHT22;10036;47.812;9.274;2022-11-25T01:31:27;2.90;99.90
19755;DHT22;10036;47.812;9.274;2022-11-25T01:33:56;2.90;99.90
19755;DHT22;10036;47.812;9.274;2022-11-25T01:36:23;2.90;99.90
19755;DHT22;10036;47.812;9.274;2022-11-25T01:38:53;2.80;99.90
19755;DHT22;10036;47.812;9.274;2022-11-25T01:41:21;2.80;99.90
19755;DHT22;10036;47.812;9.274;2022-11-25T01:44:12;2.90;99.90
19755;DHT22;10036;47.812;9.274;2022-11-25T01:46:52;3.10;99.90
19755;DHT22;10036;47.812;9.274;2022-11-25T01:49:24;3.20;99.90
19755;DHT22;10036;47.812;9.274;2022-11-25T01:51:56;3.20;99.90
19755;DHT22;10036;47.812;9.274;2022-11-25T01:54:28;3.10;99.90
19755;DHT22;10036;47.812;9.274;2022-11-25T01:56:59;3.00;99.90
19755;DHT22;10036;47.812;9.274;2022-11-25T01:59:28;2.90;99.90
19755;DHT22;10036;47.812;9.274;2022-11-25T02:01:58;2.90;99.90
19755;DHT22;10036;47.812;9.274;2022-11-25T02:04:30;3.00;99.90
19755;DHT22;10036;47.812;9.274;2022-11-25T02:07:02;3.00;99.90
19755;DHT22;10036;47.812;9.274;2022-11-25T02:09:32;3.10;99.90
19755;DHT22;10036;47.812;9.274;2022-11-25T02:12:00;3.10;99.90
19755;DHT22;10036;47.812;9.274;2022-11-25T02:14:28;2.90;99.90
19755;DHT22;10036;47.812;9.274;2022-11-25T02:16:54;2.90;99.90
19755;DHT22;10036;47.812;9.274;2022-11-25T02:19:23;2.80;99.90
19755;DHT22;10036;47.812;9.274;2022-11-25T02:21:55;2.90;99.90
19755;DHT22;10036;47.812;9.274;2022-11-25T02:24:29;3.00;99.90
19755;DHT22;10036;47.812;9.274;2022-11-25T02:26:59;2.90;99.90
19755;DHT22;10036;47.812;9.274;2022-11-25T02:29:27;2.80;99.90
19755;DHT22;10036;47.812;9.274;2022-11-25T02:31:54;2.90;99.90
19755;DHT22;10036;47.812;9.274;2022-11-25T02:34:21;3.00;99.90
19755;DHT22;10036;47.812;9.274;2022-11-25T02:36:48;3.00;99.90
19755;DHT22;10036;47.812;9.274;2022-11-25T02:39:17;2.90;99.90
19755;DHT22;10036;47.812;9.274;2022-11-25T02:41:48;3.00;99.90
19755;DHT22;10036;47.812;9.274;2022-11-25T02:44:17;2.90;99.90
19755;DHT22;10036;47.812;9.274;2022-11-25T02:46:45;2.90;99.90
19755;DHT22;10036;47.812;9.274;2022-11-25T02:49:12;2.80;99.90
19755;DHT22;10036;47.812;9.274;2022-11-25T02:51:41;2.90;99.90
19755;DHT22;10036;47.812;9.274;2022-11-25T02:54:09;2.90;99.90
19755;DHT22;10036;47.812;9.274;2022-11-25T02:56:37;2.70;99.90
19755;DHT22;10036;47.812;9.274;2022-11-25T02:59:05;2.60;99.90
19755;DHT22;10036;47.812;9.274;2022-11-25T03:01:34;2.80;99.90
19755;DHT22;10036;47.812;9.274;2022-11-25T03:04:03;2.90;99.90
19755;DHT22;10036;47.812;9.274;2022-11-25T03:06:30;3.00;99.90
19755;DHT22;10036;47.812;9.274;2022-11-25T03:08:57;3.10;99.90
19755;DHT22;10036;47.812;9.274;2022-11-25T03:11:25;3.00;99.90
19755;DHT22;10036;47.812;9.274;2022-11-25T03:14:12;3.10;99.90
19755;DHT22;10036;47.812;9.274;2022-11-25T03:16:40;3.10;99.90
19755;DHT22;10036;47.812;9.274;2022-11-25T03:19:07;2.90;99.90
19755;DHT22;10036;47.812;9.274;2022-11-25T03:21:34;2.80;99.90
19755;DHT22;10036;47.812;9.274;2022-11-25T03:24:01;2.70;99.90
19755;DHT22;10036;47.812;9.274;2022-11-25T03:26:28;2.70;99.90
19755;DHT22;10036;47.812;9.274;2022-11-25T03:28:55;2.80;99.90
19755;DHT22;10036;47.812;9.274;2022-11-25T03:31:21;2.80;99.90
19755;DHT22;10036;47.812;9.274;2022-11-25T03:33:50;2.80;99.90
19755;DHT22;10036;47.812;9.274;2022-11-25T03:36:17;2.80;99.90
19755;DHT22;10036;47.812;9.274;2022-11-25T03:38:43;2.90;99.90
19755;DHT22;10036;47.812;9.274;2022-11-25T03:41:10;2.80;99.90
19755;DHT22;10036;47.812;9.274;2022-11-25T03:43:37;2.80;99.90
19755;DHT22;10036;47.812;9.274;2022-11-25T03:46:04;2.80;99.90
19755;DHT22;10036;47.812;9.274;2022-11-25T03:48:31;2.80;99.90
19755;DHT22;10036;47.812;9.274;2022-11-25T03:50:59;2.90;99.90
19755;DHT22;10036;47.812;9.274;2022-11-25T03:53:27;2.90;99.90
19755;DHT22;10036;47.812;9.274;2022-11-25T03:55:54;2.90;99.90
19755;DHT22;10036;47.812;9.274;2022-11-25T03:58:21;2.90;99.90
19755;DHT22;10036;47.812;9.274;2022-11-25T04:00:48;2.90;99.90
19755;DHT22;10036;47.812;9.274;2022-11-25T04:03:14;2.80;99.90
19755;DHT22;10036;47.812;9.274;2022-11-25T04:05:41;2.70;99.90
19755;DHT22;10036;47.812;9.274;2022-11-25T04:08:10;2.70;99.90
19755;DHT22;10036;47.812;9.274;2022-11-25T04:10:37;2.80;99.90
19755;DHT22;10036;47.812;9.274;2022-11-25T04:13:04;2.80;99.90
19755;DHT22;10036;47.812;9.274;2022-11-25T04:15:30;2.80;99.90
19755;DHT22;10036;47.812;9.274;2022-11-25T04:17:57;2.90;99.90
19755;DHT22;10036;47.812;9.274;2022-11-25T04:20:23;2.90;99.90
19755;DHT22;10036;47.812;9.274;2022-11-25T04:22:50;2.80;99.90
19755;DHT22;10036;47.812;9.274;2022-11-25T04:25:19;2.80;99.90
19755;DHT22;10036;47.812;9.274;2022-11-25T04:27:45;2.70;99.90
19755;DHT22;10036;47.812;9.274;2022-11-25T04:30:13;2.70;99.90
19755;DHT22;10036;47.812;9.274;2022-11-25T04:32:39;2.80;99.90
19755;DHT22;10036;47.812;9.274;2022-11-25T04:35:07;2.90;99.90
19755;DHT22;10036;47.812;9.274;2022-11-25T04:37:34;3.00;99.90
19755;DHT22;10036;47.812;9.274;2022-11-25T04:40:02;2.80;99.90
19755;DHT22;10036;47.812;9.274;2022-11-25T04:42:30;2.90;99.90
19755;DHT22;10036;47.812;9.274;2022-11-25T04:44:57;2.80;99.90
19755;DHT22;10036;47.812;9.274;2022-11-25T04:47:24;2.80;99.90
19755;DHT22;10036;47.812;9.274;2022-11-25T04:49:51;2.70;99.90
19755;DHT22;10036;47.812;9.274;2022-11-25T04:52:18;2.70;99.90
19755;DHT22;10036;47.812;9.274;2022-11-25T04:54:45;2.70;99.90
19755;DHT22;10036;47.812;9.274;2022-11-25T04:57:12;2.70;99.90
19755;DHT22;10036;47.812;9.274;2022-11-25T04:59:41;2.80;99.90
19755;DHT22;10036;47.812;9.274;2022-11-25T05:02:12;2.80;99.90
19755;DHT22;10036;47.812;9.274;2022-11-25T05:04:39;3.00;99.90
19755;DHT22;10036;47.812;9.274;2022-11-25T05:07:06;3.00;99.90
19755;DHT22;10036;47.812;9.274;2022-11-25T05:09:33;3.10;99.90
19755;DHT22;10036;47.812;9.274;2022-11-25T05:12:00;3.10;99.90
19755;DHT22;10036;47.812;9.274;2022-11-25T05:14:27;3.00;99.90
19755;DHT22;10036;47.812;9.274;2022-11-25T05:16:55;3.10;99.90
19755;DHT22;10036;47.812;9.274;2022-11-25T05:19:22;3.00;99.90
19755;DHT22;10036;47.812;9.274;2022-11-25T05:21:49;2.90;99.90
19755;DHT22;10036;47.812;9.274;2022-11-25T05:24:16;3.00;99.90
19755;DHT22;10036;47.812;9.274;2022-11-25T05:26:43;2.90;99.90
19755;DHT22;10036;47.812;9.274;2022-11-25T05:29:10;3.10;99.90
19755;DHT22;10036;47.812;9.274;2022-11-25T05:31:37;3.10;99.90
19755;DHT22;10036;47.812;9.274;2022-11-25T05:34:05;3.10;99.90
19755;DHT22;10036;47.812;9.274;2022-11-25T05:36:32;3.10;99.90
19755;DHT22;10036;47.812;9.274;2022-11-25T05:39:00;3.00;99.90
19755;DHT22;10036;47.812;9.274;2022-11-25T05:41:27;3.00;99.90
19755;DHT22;10036;47.812;9.274;2022-11-25T05:43:54;3.10;99.90
19755;DHT22;10036;47.812;9.274;2022-11-25T05:46:21;2.90;99.90
19755;DHT22;10036;47.812;9.274;2022-11-25T05:48:52;2.90;99.90
19755;DHT22;10036;47.812;9.274;2022-11-25T05:51:20;2.80;99.90
19755;DHT22;10036;47.812;9.274;2022-11-25T05:53:48;2.90;99.90
19755;DHT22;10036;47.812;9.274;2022-11-25T05:56:15;3.00;99.90
19755;DHT22;10036;47.812;9.274;2022-11-25T05:58:42;3.00;99.90
19755;DHT22;10036;47.812;9.274;2022-11-25T06:01:09;3.10;99.90
19755;DHT22;10036;47.812;9.274;2022-11-25T06:03:37;3.00;99.90
19755;DHT22;10036;47.812;9.274;2022-11-25T06:06:05;2.90;99.90
19755;DHT22;10036;47.812;9.274;2022-11-25T06:08:35;2.80;99.90
19755;DHT22;10036;47.812;9.274;2022-11-25T06:11:04;2.70;99.90
19755;DHT22;10036;47.812;9.274;2022-11-25T06:13:31;2.70;99.90
19755;DHT22;10036;47.812;9.274;2022-11-25T06:15:58;2.60;99.90
19755;DHT22;10036;47.812;9.274;2022-11-25T06:18:25;2.80;99.90
19755;DHT22;10036;47.812;9.274;2022-11-25T06:20:56;2.80;99.90
19755;DHT22;10036;47.812;9.274;2022-11-25T06:23:23;2.80;99.90
19755;DHT22;10036;47.812;9.274;2022-11-25T06:25:51;3.00;99.90
19755;DHT22;10036;47.812;9.274;2022-11-25T06:28:18;3.10;99.90
19755;DHT22;10036;47.812;9.274;2022-11-25T06:30:45;2.90;99.90
19755;DHT22;10036;47.812;9.274;2022-11-25T06:33:12;3.00;99.90
19755;DHT22;10036;47.812;9.274;2022-11-25T06:35:39;2.90;99.90
19755;DHT22;10036;47.812;9.274;2022-11-25T06:38:06;2.80;99.90
19755;DHT22;10036;47.812;9.274;2022-11-25T06:40:34;2.60;99.90
19755;DHT22;10036;47.812;9.274;2022-11-25T06:43:03;2.50;99.90
19755;DHT22;10036;47.812;9.274;2022-11-25T06:45:31;2.40;99.90
19755;DHT22;10036;47.812;9.274;2022-11-25T06:48:01;2.40;99.90
19755;DHT22;10036;47.812;9.274;2022-11-25T06:50:27;2.50;99.90
19755;DHT22;10036;47.812;9.274;2022-11-25T06:52:54;2.40;99.90
19755;DHT22;10036;47.812;9.274;2022-11-25T06:55:21;2.50;99.90
19755;DHT22;10036;47.812;9.274;2022-11-25T06:57:48;2.50;99.90
19755;DHT22;10036;47.812;9.274;2022-11-25T07:00:18;2.40;99.90
19755;DHT22;10036;47.812;9.274;2022-11-25T07:02:45;2.40;99.90
19755;DHT22;10036;47.812;9.274;2022-11-25T07:05:12;2.50;99.90
19755;DHT22;10036;47.812;9.274;2022-11-25T07:07:38;2.50;99.90
19755;DHT22;10036;47.812;9.274;2022-11-25T07:10:07;2.40;99.90
19755;DHT22;10036;47.812;9.274;2022-11-25T07:12:34;2.50;99.90
19755;DHT22;10036;47.812;9.274;2022-11-25T07:15:01;2.70;99.90
19755;DHT22;10036;47.812;9.274;2022-11-25T07:17:29;2.70;99.90
19755;DHT22;10036;47.812;9.274;2022-11-25T07:19:56;2.70;99.90
19755;DHT22;10036;47.812;9.274;2022-11-25T07:22:23;2.70;99.90
19755;DHT22;10036;47.812;9.274;2022-11-25T07:24:49;2.90;99.90
19755;DHT22;10036;47.812;9.274;2022-11-25T07:27:16;2.90;99.90
19755;DHT22;10036;47.812;9.274;2022-11-25T07:29:43;3.00;99.90
19755;DHT22;10036;47.812;9.274;2022-11-25T07:32:10;3.20;99.90
19755;DHT22;10036;47.812;9.274;2022-11-25T07:34:38;3.00;99.90
19755;DHT22;10036;47.812;9.274;2022-11-25T07:37:05;3.00;99.90
19755;DHT22;10036;47.812;9.274;2022-11-25T07:39:32;3.10;99.90
19755;DHT22;10036;47.812;9.274;2022-11-25T07:41:59;3.20;99.90
19755;DHT22;10036;47.812;9.274;2022-11-25T07:44:26;3.20;99.90
19755;DHT22;10036;47.812;9.274;2022-11-25T07:46:53;3.30;99.90
19755;DHT22;10036;47.812;9.274;2022-11-25T07:49:21;3.40;99.90
19755;DHT22;10036;47.812;9.274;2022-11-25T07:51:52;3.40;99.90
19755;DHT22;10036;47.812;9.274;2022-11-25T07:54:21;3.40;99.90
19755;DHT22;10036;47.812;9.274;2022-11-25T07:56:48;3.50;99.90
19755;DHT22;10036;47.812;9.274;2022-11-25T07:59:17;3.50;99.90
19755;DHT22;10036;47.812;9.274;2022-11-25T08:01:44;3.40;99.90
19755;DHT22;10036;47.812;9.274;2022-11-25T08:04:12;3.50;99.90
19755;DHT22;10036;47.812;9.274;2022-11-25T08:06:41;3.40;99.90
19755;DHT22;10036;47.812;9.274;2022-11-25T08:09:11;3.60;99.90
19755;DHT22;10036;47.812;9.274;2022-11-25T08:11:39;3.60;99.90
19755;DHT22;10036;47.812;9.274;2022-11-25T08:14:06;3.60;99.90
19755;DHT22;10036;47.812;9.274;2022-11-25T08:16:35;3.60;99.90
19755;DHT22;10036;47.812;9.274;2022-11-25T08:19:04;3.80;99.90
19755;DHT22;10036;47.812;9.274;2022-11-25T08:21:31;3.70;99.90
19755;DHT22;10036;47.812;9.274;2022-11-25T08:23:58;3.80;99.90
19755;DHT22;10036;47.812;9.274;2022-11-25T08:26:30;3.80;99.90
19755;DHT22;10036;47.812;9.274;2022-11-25T08:28:58;3.90;99.90
19755;DHT22;10036;47.812;9.274;2022-11-25T08:31:27;4.00;99.90
19755;DHT22;10036;47.812;9.274;2022-11-25T08:33:55;4.00;99.90
19755;DHT22;10036;47.812;9.274;2022-11-25T08:36:23;4.00;99.90
19755;DHT22;10036;47.812;9.274;2022-11-25T08:38:53;4.10;99.90
19755;DHT22;10036;47.812;9.274;2022-11-25T08:41:25;4.00;99.90
19755;DHT22;10036;47.812;9.274;2022-11-25T08:43:55;4.10;99.90
19755;DHT22;10036;47.812;9.274;2022-11-25T08:46:25;4.20;99.90
19755;DHT22;10036;47.812;9.274;2022-11-25T08:48:52;4.20;99.90
19755;DHT22;10036;47.812;9.274;2022-11-25T08:51:22;4.20;99.90
19755;DHT22;10036;47.812;9.274;2022-11-25T08:53:50;4.50;99.90
19755;DHT22;10036;47.812;9.274;2022-11-25T08:56:19;4.40;99.90
19755;DHT22;10036;47.812;9.274;2022-11-25T08:58:46;4.50;99.90
19755;DHT22;10036;47.812;9.274;2022-11-25T09:01:17;4.60;99.90
19755;DHT22;10036;47.812;9.274;2022-11-25T09:03:46;4.70;99.90
19755;DHT22;10036;47.812;9.274;2022-11-25T09:06:14;4.80;99.90
19755;DHT22;10036;47.812;9.274;2022-11-25T09:08:43;4.90;99.90
19755;DHT22;10036;47.812;9.274;2022-11-25T09:11:10;5.00;99.90
19755;DHT22;10036;47.812;9.274;2022-11-25T09:13:37;5.20;99.90
19755;DHT22;10036;47.812;9.274;2022-11-25T09:16:05;5.10;99.90
19755;DHT22;10036;47.812;9.274;2022-11-25T09:18:33;5.20;99.90
19755;DHT22;10036;47.812;9.274;2022-11-25T09:21:06;5.40;99.90
19755;DHT22;10036;47.812;9.274;2022-11-25T09:23:33;5.30;99.90
19755;DHT22;10036;47.812;9.274;2022-11-25T09:26:00;5.40;99.90
19755;DHT22;10036;47.812;9.274;2022-11-25T09:28:27;5.50;99.90
19755;DHT22;10036;47.812;9.274;2022-11-25T09:30:54;5.40;99.90
19755;DHT22;10036;47.812;9.274;2022-11-25T09:33:21;5.80;99.90
19755;DHT22;10036;47.812;9.274;2022-11-25T09:35:52;5.70;99.90
19755;DHT22;10036;47.812;9.274;2022-11-25T09:38:20;5.90;99.90
19755;DHT22;10036;47.812;9.274;2022-11-25T09:40:52;5.90;99.90
19755;DHT22;10036;47.812;9.274;2022-11-25T09:43:32;6.10;99.90
19755;DHT22;10036;47.812;9.274;2022-11-25T09:46:44;6.20;99.90
19755;DHT22;10036;47.812;9.274;2022-11-25T09:49:32;6.40;99.90
19755;DHT22;10036;47.812;9.274;2022-11-25T09:52:09;6.60;99.90
19755;DHT22;10036;47.812;9.274;2022-11-25T09:54:42;6.80;99.90
19755;DHT22;10036;47.812;9.274;2022-11-25T09:57:21;6.80;99.90
19755;DHT22;10036;47.812;9.274;2022-11-25T10:00:00;6.90;99.90
19755;DHT22;10036;47.812;9.274;2022-11-25T10:02:34;6.90;99.90
19755;DHT22;10036;47.812;9.274;2022-11-25T10:05:07;7.00;99.90
19755;DHT22;10036;47.812;9.274;2022-11-25T10:07:42;7.10;99.90
19755;DHT22;10036;47.812;9.274;2022-11-25T10:10:17;7.10;99.90
19755;DHT22;10036;47.812;9.274;2022-11-25T10:12:47;7.20;99.90
19755;DHT22;10036;47.812;9.274;2022-11-25T10:15:18;7.20;99.90
19755;DHT22;10036;47.812;9.274;2022-11-25T10:17:47;7.40;99.90
19755;DHT22;10036;47.812;9.274;2022-11-25T10:20:19;7.40;99.90
19755;DHT22;10036;47.812;9.274;2022-11-25T10:22:51;7.30;99.90
19755;DHT22;10036;47.812;9.274;2022-11-25T10:25:22;7.40;99.90
19755;DHT22;10036;47.812;9.274;2022-11-25T10:27:54;7.40;99.90
19755;DHT22;10036;47.812;9.274;2022-11-25T10:30:24;7.40;99.90
19755;DHT22;10036;47.812;9.274;2022-11-25T10:32:53;7.50;99.90
19755;DHT22;10036;47.812;9.274;2022-11-25T10:35:28;7.30;99.90
19755;DHT22;10036;47.812;9.274;2022-11-25T10:38:01;7.40;99.90
19755;DHT22;10036;47.812;9.274;2022-11-25T10:40:30;7.40;99.90
19755;DHT22;10036;47.812;9.274;2022-11-25T10:42:58;7.40;99.90
19755;DHT22;10036;47.812;9.274;2022-11-25T10:45:31;7.40;99.90
19755;DHT22;10036;47.812;9.274;2022-11-25T10:48:12;7.40;99.90
19755;DHT22;10036;47.812;9.274;2022-11-25T10:51:00;7.50;99.90
19755;DHT22;10036;47.812;9.274;2022-11-25T10:53:33;7.50;99.90
19755;DHT22;10036;47.812;9.274;2022-11-25T10:56:02;7.60;99.90
19755;DHT22;10036;47.812;9.274;2022-11-25T10:58:32;7.60;99.90
19755;DHT22;10036;47.812;9.274;2022-11-25T11:01:06;7.70;99.90
19755;DHT22;10036;47.812;9.274;2022-11-25T11:03:38;7.70;99.90
19755;DHT22;10036;47.812;9.274;2022-11-25T11:06:09;7.70;99.90
19755;DHT22;10036;47.812;9.274;2022-11-25T11:08:54;7.90;99.90
19755;DHT22;10036;47.812;9.274;2022-11-25T11:11:23;8.00;99.90
19755;DHT22;10036;47.812;9.274;2022-11-25T11:13:58;8.00;99.90
19755;DHT22;10036;47.812;9.274;2022-11-25T11:16:29;8.10;99.90
19755;DHT22;10036;47.812;9.274;2022-11-25T11:18:57;8.20;99.90
19755;DHT22;10036;47.812;9.274;2022-11-25T11:21:29;8.20;99.90
19755;DHT22;10036;47.812;9.274;2022-11-25T11:23:59;8.30;99.90
19755;DHT22;10036;47.812;9.274;2022-11-25T11:26:30;8.30;99.90
19755;DHT22;10036;47.812;9.274;2022-11-25T11:28:59;8.30;99.90
19755;DHT22;10036;47.812;9.274;2022-11-25T11:31:31;8.30;99.90
19755;DHT22;10036;47.812;9.274;2022-11-25T11:34:28;8.30;99.90
19755;DHT22;10036;47.812;9.274;2022-11-25T11:37:13;8.20;99.90
19755;DHT22;10036;47.812;9.274;2022-11-25T11:40:02;8.30;99.90
19755;DHT22;10036;47.812;9.274;2022-11-25T11:42:45;8.50;99.90
19755;DHT22;10036;47.812;9.274;2022-11-25T11:45:27;8.50;99.90
19755;DHT22;10036;47.812;9.274;2022-11-25T11:48:08;8.60;99.90
19755;DHT22;10036;47.812;9.274;2022-11-25T11:50:39;8.60;99.90
19755;DHT22;10036;47.812;9.274;2022-11-25T11:53:10;8.60;99.90
19755;DHT22;10036;47.812;9.274;2022-11-25T11:55:57;8.70;99.90
19755;DHT22;10036;47.812;9.274;2022-11-25T11:58:42;8.70;99.90
19755;DHT22;10036;47.812;9.274;2022-11-25T12:01:23;8.70;99.90
19755;DHT22;10036;47.812;9.274;2022-11-25T12:03:58;8.70;99.90
19755;DHT22;10036;47.812;9.274;2022-11-25T12:06:30;8.70;99.90
19755;DHT22;10036;47.812;9.274;2022-11-25T12:09:04;8.70;99.90
19755;DHT22;10036;47.812;9.274;2022-11-25T12:11:37;8.80;99.90
19755;DHT22;10036;47.812;9.274;2022-11-25T12:14:13;8.80;99.90
19755;DHT22;10036;47.812;9.274;2022-11-25T12:16:43;8.90;99.90
19755;DHT22;10036;47.812;9.274;2022-11-25T12:19:14;9.00;99.90
19755;DHT22;10036;47.812;9.274;2022-11-25T12:21:47;8.90;99.90
19755;DHT22;10036;47.812;9.274;2022-11-25T12:24:21;8.80;99.90
19755;DHT22;10036;47.812;9.274;2022-11-25T12:26:56;8.80;99.90
19755;DHT22;10036;47.812;9.274;2022-11-25T12:29:30;8.80;99.90
19755;DHT22;10036;47.812;9.274;2022-11-25T12:32:08;8.80;99.90
19755;DHT22;10036;47.812;9.274;2022-11-25T12:34:49;8.80;99.90
19755;DHT22;10036;47.812;9.274;2022-11-25T12:37:27;8.60;99.90
19755;DHT22;10036;47.812;9.274;2022-11-25T12:39:59;8.70;99.90
19755;DHT22;10036;47.812;9.274;2022-11-25T12:42:37;8.80;99.90
19755;DHT22;10036;47.812;9.274;2022-11-25T12:45:14;8.80;99.90
19755;DHT22;10036;47.812;9.274;2022-11-25T12:47:43;8.90;99.90
19755;DHT22;10036;47.812;9.274;2022-11-25T12:50:14;8.90;99.90
19755;DHT22;10036;47.812;9.274;2022-11-25T12:52:50;8.90;99.90
19755;DHT22;10036;47.812;9.274;2022-11-25T12:55:20;8.90;99.90
19755;DHT22;10036;47.812;9.274;2022-11-25T12:58:07;9.00;99.90
19755;DHT22;10036;47.812;9.274;2022-11-25T13:01:02;9.00;99.90
19755;DHT22;10036;47.812;9.274;2022-11-25T13:04:08;8.80;99.90
19755;DHT22;10036;47.812;9.274;2022-11-25T13:06:57;8.70;99.90
19755;DHT22;10036;47.812;9.274;2022-11-25T13:09:45;8.60;99.90
19755;DHT22;10036;47.812;9.274;2022-11-25T13:12:29;8.50;99.90
19755;DHT22;10036;47.812;9.274;2022-11-25T13:17:56;8.40;99.90
19755;DHT22;10036;47.812;9.274;2022-11-25T13:20:42;8.30;99.90
19755;DHT22;10036;47.812;9.274;2022-11-25T13:23:30;8.40;99.90
19755;DHT22;10036;47.812;9.274;2022-11-25T13:35:33;8.40;99.90
19755;DHT22;10036;47.812;9.274;2022-11-25T13:38:06;8.30;99.90
19755;DHT22;10036;47.812;9.274;2022-11-25T13:40:36;8.30;99.90
19755;DHT22;10036;47.812;9.274;2022-11-25T13:43:04;8.30;99.90
19755;DHT22;10036;47.812;9.274;2022-11-25T13:45:45;8.30;99.90
19755;DHT22;10036;47.812;9.274;2022-11-25T13:48:17;8.30;99.90
19755;DHT22;10036;47.812;9.274;2022-11-25T13:50:45;8.30;99.90
19755;DHT22;10036;47.812;9.274;2022-11-25T13:53:20;8.40;99.90
19755;DHT22;10036;47.812;9.274;2022-11-25T13:55:47;8.40;99.90
19755;DHT22;10036;47.812;9.274;2022-11-25T13:58:19;8.30;99.90
19755;DHT22;10036;47.812;9.274;2022-11-25T14:03:50;8.30;99.90
19755;DHT22;10036;47.812;9.274;2022-11-25T14:09:35;8.30;99.90
19755;DHT22;10036;47.812;9.274;2022-11-25T14:12:21;8.30;99.90
19755;DHT22;10036;47.812;9.274;2022-11-25T14:15:09;8.30;99.90
19755;DHT22;10036;47.812;9.274;2022-11-25T14:18:00;8.30;99.90
19755;DHT22;10036;47.812;9.274;2022-11-25T14:20:37;8.30;99.90
19755;DHT22;10036;47.812;9.274;2022-11-25T14:23:32;8.30;99.90
19755;DHT22;10036;47.812;9.274;2022-11-25T14:26:09;8.30;99.90
19755;DHT22;10036;47.812;9.274;2022-11-25T14:28:42;8.20;99.90
19755;DHT22;10036;47.812;9.274;2022-11-25T14:31:14;8.30;99.90
19755;DHT22;10036;47.812;9.274;2022-11-25T14:33:46;8.20;99.90
19755;DHT22;10036;47.812;9.274;2022-11-25T14:36:20;8.20;99.90
19755;DHT22;10036;47.812;9.274;2022-11-25T14:38:53;8.20;99.90
19755;DHT22;10036;47.812;9.274;2022-11-25T14:41:27;8.20;99.90
19755;DHT22;10036;47.812;9.274;2022-11-25T14:44:00;8.10;99.90
19755;DHT22;10036;47.812;9.274;2022-11-25T14:46:29;8.10;99.90
19755;DHT22;10036;47.812;9.274;2022-11-25T14:48:57;8.10;99.90
19755;DHT22;10036;47.812;9.274;2022-11-25T14:51:31;8.10;99.90
19755;DHT22;10036;47.812;9.274;2022-11-25T14:53:59;8.00;99.90
19755;DHT22;10036;47.812;9.274;2022-11-25T14:56:28;8.00;99.90
19755;DHT22;10036;47.812;9.274;2022-11-25T14:58:57;8.00;99.90
19755;DHT22;10036;47.812;9.274;2022-11-25T15:01:26;8.00;99.90
19755;DHT22;10036;47.812;9.274;2022-11-25T15:04:01;8.00;99.90
19755;DHT22;10036;47.812;9.274;2022-11-25T15:06:32;8.00;99.90
19755;DHT22;10036;47.812;9.274;2022-11-25T15:09:00;7.90;99.90
19755;DHT22;10036;47.812;9.274;2022-11-25T15:11:29;7.90;99.90
19755;DHT22;10036;47.812;9.274;2022-11-25T15:13:59;7.90;99.90
19755;DHT22;10036;47.812;9.274;2022-11-25T15:16:31;7.90;99.90
19755;DHT22;10036;47.812;9.274;2022-11-25T15:19:00;7.80;99.90
19755;DHT22;10036;47.812;9.274;2022-11-25T15:21:30;7.80;99.90
19755;DHT22;10036;47.812;9.274;2022-11-25T15:23:58;7.80;99.90
19755;DHT22;10036;47.812;9.274;2022-11-25T15:26:28;7.80;99.90
19755;DHT22;10036;47.812;9.274;2022-11-25T15:28:57;7.80;99.90
19755;DHT22;10036;47.812;9.274;2022-11-25T15:31:26;7.90;99.90
19755;DHT22;10036;47.812;9.274;2022-11-25T15:33:56;7.70;99.90
19755;DHT22;10036;47.812;9.274;2022-11-25T15:36:24;7.70;99.90
19755;DHT22;10036;47.812;9.274;2022-11-25T15:38:53;7.70;99.90
19755;DHT22;10036;47.812;9.274;2022-11-25T15:41:30;7.70;99.90
19755;DHT22;10036;47.812;9.274;2022-11-25T15:43:59;7.70;99.90
19755;DHT22;10036;47.812;9.274;2022-11-25T15:46:27;7.70;99.90
19755;DHT22;10036;47.812;9.274;2022-11-25T15:48:58;7.70;99.90
19755;DHT22;10036;47.812;9.274;2022-11-25T15:51:32;7.70;99.90
19755;DHT22;10036;47.812;9.274;2022-11-25T15:54:04;7.60;99.90
19755;DHT22;10036;47.812;9.274;2022-11-25T15:56:36;7.60;99.90
19755;DHT22;10036;47.812;9.274;2022-11-25T15:59:04;7.60;99.90
19755;DHT22;10036;47.812;9.274;2022-11-25T16:01:31;7.60;99.90
19755;DHT22;10036;47.812;9.274;2022-11-25T16:04:10;7.50;99.90
19755;DHT22;10036;47.812;9.274;2022-11-25T16:06:52;7.50;99.90
19755;DHT22;10036;47.812;9.274;2022-11-25T16:09:22;7.50;99.90
19755;DHT22;10036;47.812;9.274;2022-11-25T16:11:50;7.40;99.90
19755;DHT22;10036;47.812;9.274;2022-11-25T16:14:21;7.50;99.90
19755;DHT22;10036;47.812;9.274;2022-11-25T16:16:50;7.40;99.90
19755;DHT22;10036;47.812;9.274;2022-11-25T16:19:18;7.30;99.90
19755;DHT22;10036;47.812;9.274;2022-11-25T16:21:52;7.30;99.90
19755;DHT22;10036;47.812;9.274;2022-11-25T16:24:34;7.30;99.90
19755;DHT22;10036;47.812;9.274;2022-11-25T16:27:04;7.20;99.90